F\v Tenia — FPMH — position and weather

sailwx.info

Track history (hours):
 
Tides and Currents Weather Stations Pressure Air Temp Water Temp Dewpoint Dewpoint Depression Visibility Wind Speed Wind Dir Waves Ship Positions

F\v Tenia

Last reported at 2017-Jul-27 15:41 UTC. Time now 2017-Aug-24 01:10 UTC.
Position N 51°21' W 010°17'.
Warning: this ship's position is 27 days out of date.

Length 22 m; draft 4 m.

Type: Fishing. MMSI: 227575000.

Date/timePositionNaut miles runAvg speedWind from/ knotsBaromVisibWave heightAir tempDewpointWater temp
2017-Jul-27 15:41N 51°21' W 010°17'1 7.2
2017-Jul-27 15:30N 51°22' W 010°16'4 7.5
2017-Jul-27 15:00N 51°25' W 010°13'7 7.2
2017-Jul-27 14:00N 51°30' W 010°04'5 7.4
2017-Jul-27 13:18N 51°34' W 009°59'2 7.2
2017-Jul-27 13:01N 51°36' W 009°57'4 5.9
2017-Jul-27 12:24N 51°39' W 009°54'0 0.0
2017-Jul-27 11:58N 51°39' W 009°54'0 0.2
2017-Jul-27 11:04N 51°39' W 009°54'0 0.0
2017-Jul-27 10:58N 51°39' W 009°54'0 0.0
2017-Jul-27 10:18N 51°39' W 009°54'0 0.0
2017-Jul-27 09:59N 51°39' W 009°54'0 0.0
2017-Jul-27 09:00N 51°39' W 009°54'0 0.0
2017-Jul-27 08:18N 51°39' W 009°54'0 0.0
2017-Jul-27 07:57N 51°39' W 009°54'0 0.0
2017-Jul-27 07:28N 51°39' W 009°54'0 0.8
2017-Jul-27 07:00N 51°39' W 009°55'5 8.8
2017-Jul-27 06:26N 51°34' W 009°59'4 9.0
2017-Jul-27 06:00N 51°31' W 010°03'5 9.1
2017-Jul-27 05:30N 51°28' W 010°08'  
2017-Jul-24 07:23N 50°45' W 011°06'2 0.6
2017-Jul-24 04:29N 50°45' W 011°04'45 3.0
2017-Jul-23 13:41N 51°20' W 010°20'2 8.2
2017-Jul-23 13:25N 51°21' W 010°18'3 8.2
2017-Jul-23 13:00N 51°24' W 010°14'5 8.5
2017-Jul-23 12:28N 51°27' W 010°09'5 8.5
2017-Jul-23 11:56N 51°30' W 010°04'4 8.5
2017-Jul-23 11:27N 51°33' W 009°59'4 8.5
2017-Jul-23 10:56N 51°37' W 009°55'2 3.9
2017-Jul-23 10:23N 51°39' W 009°54'0 0.0
2017-Jul-23 09:58N 51°39' W 009°54'0 0.3
2017-Jul-23 09:25N 51°39' W 009°54'0 0.0
2017-Jul-23 08:59N 51°39' W 009°54'0 0.1
2017-Jul-23 08:29N 51°39' W 009°54'0 0.0
2017-Jul-23 07:59N 51°39' W 009°54'0 0.0
2017-Jul-23 07:29N 51°39' W 009°54'0 0.0
2017-Jul-23 06:52N 51°39' W 009°54'0 0.0
2017-Jul-23 06:27N 51°39' W 009°54'0 0.0
2017-Jul-23 05:59N 51°39' W 009°54'0 0.0
2017-Jul-23 05:20N 51°39' W 009°54'0 0.0
2017-Jul-23 04:59N 51°39' W 009°54'3 5.7
2017-Jul-23 04:31N 51°36' W 009°56'0 0.6
2017-Jul-23 03:57N 51°36' W 009°56'2 3.6
2017-Jul-23 03:30N 51°35' W 009°58'4 8.0
2017-Jul-23 03:01N 51°32' W 010°02'4 8.7
2017-Jul-23 02:30N 51°29' W 010°06'4 8.8
2017-Jul-23 02:00N 51°25' W 010°11'  
2017-Jul-18 19:37N 51°22' W 010°17'1 8.5
2017-Jul-18 19:30N 51°23' W 010°15'4 8.2
2017-Jul-18 18:58N 51°26' W 010°11'6 8.6
2017-Jul-18 18:15N 51°31' W 010°04'2 8.4
2017-Jul-18 17:58N 51°33' W 010°02'4 8.6
2017-Jul-18 17:30N 51°36' W 009°57'4 7.4
2017-Jul-18 16:59N 51°39' W 009°54'0 0.0
2017-Jul-18 16:28N 51°39' W 009°54'0 0.4
2017-Jul-18 15:59N 51°39' W 009°54'0 0.0
2017-Jul-18 15:29N 51°39' W 009°54'0 0.1
2017-Jul-18 14:55N 51°39' W 009°54'0 0.0
2017-Jul-18 14:00N 51°39' W 009°54'0 0.0
2017-Jul-18 13:16N 51°39' W 009°54'0 0.0
2017-Jul-18 12:53N 51°39' W 009°54'0 0.0
2017-Jul-18 12:29N 51°39' W 009°54'0 0.0
2017-Jul-18 12:00N 51°39' W 009°54'0 0.0
2017-Jul-18 11:24N 51°39' W 009°54'2 4.5
2017-Jul-18 10:59N 51°37' W 009°55'4 8.6
2017-Jul-18 10:30N 51°34' W 009°59'4 8.9
2017-Jul-18 10:01N 51°31' W 010°04'5 9.0
2017-Jul-18 09:30N 51°27' W 010°09'5 9.1
2017-Jul-18 09:01N 51°24' W 010°14'4 8.9
2017-Jul-18 08:30N 51°20' W 010°18'4 8.6
2017-Jul-18 08:00N 51°17' W 010°23'4 8.5
2017-Jul-18 07:31N 51°14' W 010°28'4 8.7
2017-Jul-18 07:00N 51°11' W 010°32'4 8.9
2017-Jul-18 06:30N 51°07' W 010°37'4 8.9
2017-Jul-18 06:01N 51°04' W 010°41'5 8.7
2017-Jul-18 05:29N 51°01' W 010°46'6 8.5
2017-Jul-18 04:47N 50°56' W 010°53'7 8.7
2017-Jul-18 04:02N 50°52' W 010°60'3 8.9
2017-Jul-18 03:40N 50°49' W 011°03'3 4.7
2017-Jul-18 03:01N 50°47' W 011°07'0 1.3
2017-Jul-18 03:01N 50°47' W 011°07'0 0.2
2017-Jul-18 02:30N 50°47' W 011°07'0 0.2
2017-Jul-18 01:50N 50°47' W 011°07'0 0.3
2017-Jul-18 01:31N 50°47' W 011°07'1 0.3
2017-Jul-17 23:15N 50°47' W 011°08'0 0.4
2017-Jul-17 22:09N 50°46' W 011°09'0 0.6
2017-Jul-17 21:59N 50°46' W 011°09'0 0.5
2017-Jul-17 21:30N 50°46' W 011°09'0 0.6
2017-Jul-17 20:56N 50°46' W 011°10'0 0.3
2017-Jul-17 19:22N 50°46' W 011°10'2 1.2
2017-Jul-17 17:29N 50°47' W 011°07'  
Track history (hours):
 
Tides and Currents Weather Stations Pressure Air Temp Water Temp Dewpoint Dewpoint Depression Visibility Wind Speed Wind Dir Waves Ship Positions

F\v Tenia

Last reported at 2017-Jul-27 15:41 UTC. Time now 2017-Aug-24 01:10 UTC.
Position N 51°21' W 010°17'.
Warning: this ship's position is 27 days out of date.

Length 22 m; draft 4 m.

Type: Fishing. MMSI: 227575000.

Date/timePositionNaut miles runAvg speedWind from/ knotsBaromVisibWave heightAir tempDewpointWater temp
2017-Jul-27 15:41N 51°21' W 010°17'1 7.2
2017-Jul-27 15:30N 51°22' W 010°16'4 7.5
2017-Jul-27 15:00N 51°25' W 010°13'7 7.2
2017-Jul-27 14:00N 51°30' W 010°04'5 7.4
2017-Jul-27 13:18N 51°34' W 009°59'2 7.2
2017-Jul-27 13:01N 51°36' W 009°57'4 5.9
2017-Jul-27 12:24N 51°39' W 009°54'0 0.0
2017-Jul-27 11:58N 51°39' W 009°54'0 0.2
2017-Jul-27 11:04N 51°39' W 009°54'0 0.0
2017-Jul-27 10:58N 51°39' W 009°54'0 0.0
2017-Jul-27 10:18N 51°39' W 009°54'0 0.0
2017-Jul-27 09:59N 51°39' W 009°54'0 0.0
2017-Jul-27 09:00N 51°39' W 009°54'0 0.0
2017-Jul-27 08:18N 51°39' W 009°54'0 0.0
2017-Jul-27 07:57N 51°39' W 009°54'0 0.0
2017-Jul-27 07:28N 51°39' W 009°54'0 0.8
2017-Jul-27 07:00N 51°39' W 009°55'5 8.8
2017-Jul-27 06:26N 51°34' W 009°59'4 9.0
2017-Jul-27 06:00N 51°31' W 010°03'5 9.1
2017-Jul-27 05:30N 51°28' W 010°08'  
2017-Jul-24 07:23N 50°45' W 011°06'2 0.6
2017-Jul-24 04:29N 50°45' W 011°04'45 3.0
2017-Jul-23 13:41N 51°20' W 010°20'2 8.2
2017-Jul-23 13:25N 51°21' W 010°18'3 8.2
2017-Jul-23 13:00N 51°24' W 010°14'5 8.5
2017-Jul-23 12:28N 51°27' W 010°09'5 8.5
2017-Jul-23 11:56N 51°30' W 010°04'4 8.5
2017-Jul-23 11:27N 51°33' W 009°59'4 8.5
2017-Jul-23 10:56N 51°37' W 009°55'2 3.9
2017-Jul-23 10:23N 51°39' W 009°54'0 0.0
2017-Jul-23 09:58N 51°39' W 009°54'0 0.3
2017-Jul-23 09:25N 51°39' W 009°54'0 0.0
2017-Jul-23 08:59N 51°39' W 009°54'0 0.1
2017-Jul-23 08:29N 51°39' W 009°54'0 0.0
2017-Jul-23 07:59N 51°39' W 009°54'0 0.0
2017-Jul-23 07:29N 51°39' W 009°54'0 0.0
2017-Jul-23 06:52N 51°39' W 009°54'0 0.0
2017-Jul-23 06:27N 51°39' W 009°54'0 0.0
2017-Jul-23 05:59N 51°39' W 009°54'0 0.0
2017-Jul-23 05:20N 51°39' W 009°54'0 0.0
2017-Jul-23 04:59N 51°39' W 009°54'3 5.7
2017-Jul-23 04:31N 51°36' W 009°56'0 0.6
2017-Jul-23 03:57N 51°36' W 009°56'2 3.6
2017-Jul-23 03:30N 51°35' W 009°58'4 8.0
2017-Jul-23 03:01N 51°32' W 010°02'4 8.7
2017-Jul-23 02:30N 51°29' W 010°06'4 8.8
2017-Jul-23 02:00N 51°25' W 010°11'  
2017-Jul-18 19:37N 51°22' W 010°17'1 8.5
2017-Jul-18 19:30N 51°23' W 010°15'4 8.2
2017-Jul-18 18:58N 51°26' W 010°11'6 8.6
2017-Jul-18 18:15N 51°31' W 010°04'2 8.4
2017-Jul-18 17:58N 51°33' W 010°02'4 8.6
2017-Jul-18 17:30N 51°36' W 009°57'4 7.4
2017-Jul-18 16:59N 51°39' W 009°54'0 0.0
2017-Jul-18 16:28N 51°39' W 009°54'0 0.4
2017-Jul-18 15:59N 51°39' W 009°54'0 0.0
2017-Jul-18 15:29N 51°39' W 009°54'0 0.1
2017-Jul-18 14:55N 51°39' W 009°54'0 0.0
2017-Jul-18 14:00N 51°39' W 009°54'0 0.0
2017-Jul-18 13:16N 51°39' W 009°54'0 0.0
2017-Jul-18 12:53N 51°39' W 009°54'0 0.0
2017-Jul-18 12:29N 51°39' W 009°54'0 0.0
2017-Jul-18 12:00N 51°39' W 009°54'0 0.0
2017-Jul-18 11:24N 51°39' W 009°54'2 4.5
2017-Jul-18 10:59N 51°37' W 009°55'4 8.6
2017-Jul-18 10:30N 51°34' W 009°59'4 8.9
2017-Jul-18 10:01N 51°31' W 010°04'5 9.0
2017-Jul-18 09:30N 51°27' W 010°09'5 9.1
2017-Jul-18 09:01N 51°24' W 010°14'4 8.9
2017-Jul-18 08:30N 51°20' W 010°18'4 8.6
2017-Jul-18 08:00N 51°17' W 010°23'4 8.5
2017-Jul-18 07:31N 51°14' W 010°28'4 8.7
2017-Jul-18 07:00N 51°11' W 010°32'4 8.9
2017-Jul-18 06:30N 51°07' W 010°37'4 8.9
2017-Jul-18 06:01N 51°04' W 010°41'5 8.7
2017-Jul-18 05:29N 51°01' W 010°46'6 8.5
2017-Jul-18 04:47N 50°56' W 010°53'7 8.7
2017-Jul-18 04:02N 50°52' W 010°60'3 8.9
2017-Jul-18 03:40N 50°49' W 011°03'3 4.7
2017-Jul-18 03:01N 50°47' W 011°07'0 1.3
2017-Jul-18 03:01N 50°47' W 011°07'0 0.2
2017-Jul-18 02:30N 50°47' W 011°07'0 0.2
2017-Jul-18 01:50N 50°47' W 011°07'0 0.3
2017-Jul-18 01:31N 50°47' W 011°07'1 0.3
2017-Jul-17 23:15N 50°47' W 011°08'0 0.4
2017-Jul-17 22:09N 50°46' W 011°09'0 0.6
2017-Jul-17 21:59N 50°46' W 011°09'0 0.5
2017-Jul-17 21:30N 50°46' W 011°09'0 0.6
2017-Jul-17 20:56N 50°46' W 011°10'0 0.3
2017-Jul-17 19:22N 50°46' W 011°10'2 1.2
2017-Jul-17 17:29N 50°47' W 011°07'  

Dump ship's entire track history